Time;durP1;ratioP1;P1;durP2;ratioP2;P2;SDS_P1;SDS_P2;PMS_P1;PMS_P2;Temp;Humidity;BMP_temperature;BMP_pressure;BME280_temperature;BME280_humidity;BME280_pressure;Samples;Min_cycle;Max_cycle;Signal;HPM_P1;HPM_P2
2024/04/02 00:00:26;;;;;;;;;;;5.30;99.90;;;;;;5029055;28;19922;-61
2024/04/02 00:02:51;;;;;;;;;;;5.30;99.90;;;;;;5030103;28;19923;-60
2024/04/02 00:05:17;;;;;;;;;;;5.20;99.90;;;;;;5020308;28;19917;-60
2024/04/02 00:07:42;;;;;;;;;;;5.10;99.90;;;;;;5037949;28;19917;-57
2024/04/02 00:10:08;;;;;;;;;;;5.20;99.90;;;;;;5037212;28;20023;-57
2024/04/02 00:12:33;;;;;;;;;;;5.10;99.90;;;;;;5038607;28;19913;-56
2024/04/02 00:14:59;;;;;;;;;;;5.10;99.90;;;;;;5030071;28;19913;-57
2024/04/02 00:17:24;;;;;;;;;;;5.10;99.90;;;;;;5039227;28;20312;-60
2024/04/02 00:19:50;;;;;;;;;;;5.00;99.90;;;;;;5035928;28;19921;-60
2024/04/02 00:22:15;;;;;;;;;;;5.00;99.90;;;;;;5046415;28;19921;-61
2024/04/02 00:24:41;;;;;;;;;;;5.10;99.90;;;;;;5038421;28;20296;-61
2024/04/02 00:27:06;;;;;;;;;;;5.20;99.90;;;;;;5037890;28;20035;-60
2024/04/02 00:29:32;;;;;;;;;;;5.20;99.90;;;;;;5029269;28;19924;-59
2024/04/02 00:31:57;;;;;;;;;;;5.10;99.90;;;;;;5030161;28;19917;-61
2024/04/02 00:34:22;;;;;;;;;;;5.10;99.90;;;;;;5029739;28;20373;-60
2024/04/02 00:36:48;;;;;;;;;;;5.00;99.90;;;;;;5029730;28;19920;-59
2024/04/02 00:39:13;;;;;;;;;;;5.00;99.90;;;;;;5037405;28;19914;-61
2024/04/02 00:41:39;;;;;;;;;;;5.00;99.90;;;;;;5041975;28;19921;-61
2024/04/02 00:44:04;;;;;;;;;;;5.10;99.90;;;;;;5041694;28;19917;-61
2024/04/02 00:46:30;;;;;;;;;;;5.00;99.90;;;;;;5033288;28;19947;-59
2024/04/02 00:48:55;;;;;;;;;;;5.00;99.90;;;;;;5041433;28;19921;-61
2024/04/02 00:51:21;;;;;;;;;;;4.90;99.90;;;;;;5042605;28;20362;-61
2024/04/02 00:53:46;;;;;;;;;;;4.90;99.90;;;;;;5040527;28;19913;-61
2024/04/02 00:56:12;;;;;;;;;;;4.90;99.90;;;;;;5041396;28;19986;-61
2024/04/02 00:58:37;;;;;;;;;;;4.90;99.90;;;;;;5041297;28;19917;-62
2024/04/02 01:01:03;;;;;;;;;;;4.90;99.90;;;;;;5032796;28;19921;-60
2024/04/02 01:03:28;;;;;;;;;;;4.90;99.90;;;;;;5015606;28;19913;-60
2024/04/02 01:05:54;;;;;;;;;;;4.80;99.90;;;;;;5038811;28;19944;-59
2024/04/02 01:08:19;;;;;;;;;;;4.80;99.90;;;;;;5035334;28;19921;-59
2024/04/02 01:10:45;;;;;;;;;;;4.70;99.90;;;;;;5037048;28;19912;-59
2024/04/02 01:13:11;;;;;;;;;;;4.80;99.90;;;;;;5036972;28;19913;-59
2024/04/02 01:15:37;;;;;;;;;;;4.80;99.90;;;;;;5014961;28;19913;-56
2024/04/02 01:18:02;;;;;;;;;;;4.80;99.90;;;;;;5033217;28;19978;-61
2024/04/02 01:20:28;;;;;;;;;;;4.80;99.90;;;;;;5032539;28;19924;-60
2024/04/02 01:22:53;;;;;;;;;;;4.80;99.90;;;;;;5032787;28;19967;-58
2024/04/02 01:25:20;;;;;;;;;;;4.80;99.90;;;;;;5033447;28;19913;-56
2024/04/02 01:27:45;;;;;;;;;;;4.80;99.90;;;;;;5039861;28;20431;-61
2024/04/02 01:30:11;;;;;;;;;;;4.90;99.90;;;;;;5032244;28;19917;-58
2024/04/02 01:32:36;;;;;;;;;;;4.90;99.90;;;;;;5035753;28;20281;-60
2024/04/02 01:35:02;;;;;;;;;;;4.90;99.90;;;;;;5037695;28;19945;-58
2024/04/02 01:37:28;;;;;;;;;;;4.80;99.90;;;;;;5032429;28;19923;-58
2024/04/02 01:39:54;;;;;;;;;;;4.80;99.90;;;;;;5037690;28;19917;-59
2024/04/02 01:42:19;;;;;;;;;;;4.70;99.90;;;;;;5043133;28;20393;-58
2024/04/02 01:44:44;;;;;;;;;;;4.70;99.90;;;;;;5040708;28;19923;-61
2024/04/02 01:47:10;;;;;;;;;;;4.70;99.90;;;;;;5032197;28;19921;-60
2024/04/02 01:49:35;;;;;;;;;;;4.70;99.90;;;;;;5043011;28;19913;-57
2024/04/02 01:52:03;;;;;;;;;;;4.70;99.90;;;;;;5035813;28;20385;-59
2024/04/02 01:54:28;;;;;;;;;;;4.60;99.90;;;;;;5032179;28;20344;-59
2024/04/02 01:56:54;;;;;;;;;;;4.60;99.90;;;;;;5037686;28;19913;-59
2024/04/02 01:59:19;;;;;;;;;;;4.50;99.90;;;;;;5034088;28;19925;-59
2024/04/02 02:01:45;;;;;;;;;;;4.50;99.90;;;;;;5036443;28;20335;-59
2024/04/02 02:04:10;;;;;;;;;;;4.40;99.90;;;;;;5036139;28;19940;-59
2024/04/02 02:06:35;;;;;;;;;;;4.40;99.90;;;;;;5031561;28;20008;-61
2024/04/02 02:09:02;;;;;;;;;;;4.40;99.90;;;;;;5031641;28;19913;-59
2024/04/02 02:11:27;;;;;;;;;;;4.30;99.90;;;;;;5031804;28;20385;-59
2024/04/02 02:13:53;;;;;;;;;;;4.30;99.90;;;;;;5040019;28;19923;-58
2024/04/02 02:16:18;;;;;;;;;;;4.30;99.90;;;;;;5031520;28;20270;-58
2024/04/02 02:18:43;;;;;;;;;;;4.20;99.90;;;;;;5031709;28;19935;-59
2024/04/02 02:21:09;;;;;;;;;;;4.20;99.90;;;;;;5039161;28;19924;-55
2024/04/02 02:23:34;;;;;;;;;;;4.30;99.90;;;;;;5032266;28;20358;-57
2024/04/02 02:26:00;;;;;;;;;;;4.10;99.90;;;;;;5037928;28;19960;-57
2024/04/02 02:28:25;;;;;;;;;;;4.10;99.90;;;;;;5041333;28;19917;-59
2024/04/02 02:30:51;;;;;;;;;;;4.10;99.90;;;;;;5039873;28;20424;-57
2024/04/02 02:33:16;;;;;;;;;;;4.10;99.90;;;;;;5031353;28;19917;-59
2024/04/02 02:35:42;;;;;;;;;;;4.20;99.90;;;;;;5031560;28;19952;-61
2024/04/02 02:38:07;;;;;;;;;;;4.10;99.90;;;;;;5031516;28;19917;-61
2024/04/02 02:40:32;;;;;;;;;;;4.10;99.90;;;;;;5033379;28;19921;-59
2024/04/02 02:42:58;;;;;;;;;;;4.10;99.90;;;;;;5037574;28;20284;-61
2024/04/02 02:45:24;;;;;;;;;;;4.10;99.90;;;;;;5031080;28;19913;-59
2024/04/02 02:47:50;;;;;;;;;;;4.10;99.90;;;;;;5031121;28;19917;-58
2024/04/02 02:50:15;;;;;;;;;;;4.10;99.90;;;;;;5030958;28;20012;-56
2024/04/02 02:52:42;;;;;;;;;;;4.10;99.90;;;;;;5031278;28;19909;-61
2024/04/02 02:55:07;;;;;;;;;;;4.20;99.90;;;;;;5031242;28;20007;-59
2024/04/02 02:57:33;;;;;;;;;;;4.20;99.90;;;;;;5038956;28;20373;-57
2024/04/02 02:59:58;;;;;;;;;;;4.10;99.90;;;;;;5030465;28;19917;-57
2024/04/02 03:02:24;;;;;;;;;;;4.10;99.90;;;;;;5030704;28;19913;-61
2024/04/02 03:04:50;;;;;;;;;;;4.10;99.90;;;;;;5035647;28;19967;-59
2024/04/02 03:07:15;;;;;;;;;;;4.20;99.90;;;;;;5034198;28;19917;-61
2024/04/02 03:09:41;;;;;;;;;;;4.20;99.90;;;;;;5038766;28;20369;-61
2024/04/02 03:12:07;;;;;;;;;;;4.20;99.90;;;;;;5039033;28;19971;-60
2024/04/02 03:14:33;;;;;;;;;;;4.20;99.90;;;;;;5030518;28;19939;-60
2024/04/02 03:16:58;;;;;;;;;;;4.20;99.90;;;;;;5044962;28;19913;-61
2024/04/02 03:19:23;;;;;;;;;;;4.20;99.90;;;;;;5041479;28;19912;-59
2024/04/02 03:21:49;;;;;;;;;;;4.20;99.90;;;;;;5045851;28;20008;-60
2024/04/02 03:24:14;;;;;;;;;;;4.20;99.90;;;;;;5030740;28;19917;-58
2024/04/02 03:26:40;;;;;;;;;;;4.20;99.90;;;;;;5046966;28;19956;-61
2024/04/02 03:29:05;;;;;;;;;;;4.30;99.90;;;;;;5029800;28;19917;-60
2024/04/02 03:31:31;;;;;;;;;;;4.40;99.90;;;;;;5038576;28;19913;-59
2024/04/02 03:33:57;;;;;;;;;;;4.40;99.90;;;;;;5030386;28;19924;-59
2024/04/02 03:36:22;;;;;;;;;;;4.50;99.90;;;;;;5038315;28;19932;-61
2024/04/02 03:38:47;;;;;;;;;;;4.50;99.90;;;;;;5034253;28;19964;-61
2024/04/02 03:41:13;;;;;;;;;;;4.50;99.90;;;;;;5034016;28;19924;-61
2024/04/02 03:43:43;;;;;;;;;;;4.50;99.90;;;;;;5041557;28;19916;-59
2024/04/02 03:46:09;;;;;;;;;;;4.50;99.90;;;;;;5042575;28;20050;-59
2024/04/02 03:48:35;;;;;;;;;;;4.40;99.90;;;;;;5046714;28;19943;-60
2024/04/02 03:51:01;;;;;;;;;;;4.50;99.90;;;;;;5038048;28;20300;-61
2024/04/02 03:53:26;;;;;;;;;;;4.40;99.90;;;;;;5038191;28;19919;-61
2024/04/02 03:55:55;;;;;;;;;;;4.40;99.90;;;;;;5030033;28;20011;-61
2024/04/02 03:58:21;;;;;;;;;;;4.50;99.90;;;;;;5038605;28;20007;-61
2024/04/02 04:00:46;;;;;;;;;;;4.50;99.90;;;;;;5041412;28;20011;-61
2024/04/02 04:03:12;;;;;;;;;;;4.50;99.90;;;;;;5034213;28;19917;-59
2024/04/02 04:05:37;;;;;;;;;;;4.70;99.90;;;;;;5041149;28;20408;-59
2024/04/02 04:08:03;;;;;;;;;;;4.70;99.90;;;;;;5035120;28;19917;-60
2024/04/02 04:10:28;;;;;;;;;;;4.70;99.90;;;;;;5031099;28;19913;-59
2024/04/02 04:12:54;;;;;;;;;;;4.80;99.90;;;;;;5031808;28;19979;-58
2024/04/02 04:15:19;;;;;;;;;;;5.00;99.90;;;;;;5032108;28;19943;-58
2024/04/02 04:17:45;;;;;;;;;;;5.00;99.90;;;;;;5038039;28;20262;-61
2024/04/02 04:20:10;;;;;;;;;;;5.10;99.90;;;;;;5029308;28;19921;-60
2024/04/02 04:22:36;;;;;;;;;;;5.20;99.90;;;;;;5029608;28;20304;-59
2024/04/02 04:25:02;;;;;;;;;;;5.30;99.90;;;;;;5029916;28;19979;-60
2024/04/02 04:27:36;;;;;;;;;;;5.40;99.90;;;;;;5037963;28;19924;-58
2024/04/02 04:30:03;;;;;;;;;;;5.50;99.90;;;;;;5044053;28;19919;-61
2024/04/02 04:32:28;;;;;;;;;;;5.50;99.90;;;;;;5031293;28;19916;-59
2024/04/02 04:34:54;;;;;;;;;;;5.60;99.90;;;;;;5029803;28;19913;-58
2024/04/02 04:37:19;;;;;;;;;;;5.60;99.90;;;;;;5029348;28;19925;-61
2024/04/02 04:39:45;;;;;;;;;;;5.60;99.90;;;;;;5029203;28;20284;-58
2024/04/02 04:42:10;;;;;;;;;;;5.70;99.90;;;;;;5029617;28;19943;-59
2024/04/02 04:44:36;;;;;;;;;;;5.70;99.90;;;;;;5029321;28;20297;-60
2024/04/02 04:47:01;;;;;;;;;;;5.70;99.90;;;;;;5037735;28;19963;-61
2024/04/02 04:49:27;;;;;;;;;;;5.80;99.90;;;;;;5029133;28;19913;-59
2024/04/02 04:51:52;;;;;;;;;;;5.80;99.90;;;;;;5034738;28;19917;-59
2024/04/02 04:54:17;;;;;;;;;;;5.80;99.90;;;;;;5032716;28;20355;-58
2024/04/02 04:56:43;;;;;;;;;;;5.80;99.90;;;;;;5037526;28;19920;-61
2024/04/02 04:59:08;;;;;;;;;;;5.80;99.90;;;;;;5036071;28;20003;-57
2024/04/02 05:01:34;;;;;;;;;;;5.80;99.90;;;;;;5030170;28;20332;-60
2024/04/02 05:03:59;;;;;;;;;;;5.80;99.90;;;;;;5029350;28;19923;-61
2024/04/02 05:06:25;;;;;;;;;;;5.90;99.90;;;;;;5045604;28;19917;-59
2024/04/02 05:08:50;;;;;;;;;;;6.00;99.90;;;;;;5028852;28;19975;-61
2024/04/02 05:11:15;;;;;;;;;;;6.00;99.90;;;;;;5037192;28;20361;-59
2024/04/02 05:13:41;;;;;;;;;;;6.00;99.90;;;;;;5028228;28;19913;-60
2024/04/02 05:16:07;;;;;;;;;;;6.00;99.90;;;;;;5028530;28;19924;-59
2024/04/02 05:18:32;;;;;;;;;;;6.10;99.90;;;;;;5036542;28;20012;-60
2024/04/02 05:20:58;;;;;;;;;;;6.10;99.90;;;;;;5028346;28;20344;-59
2024/04/02 05:23:23;;;;;;;;;;;6.10;99.90;;;;;;5032406;28;19928;-58
2024/04/02 05:25:49;;;;;;;;;;;6.20;99.90;;;;;;5033037;28;20368;-58
2024/04/02 05:28:15;;;;;;;;;;;6.30;99.90;;;;;;5035258;28;19917;-59
2024/04/02 05:30:40;;;;;;;;;;;6.30;99.90;;;;;;5034926;28;20348;-59
2024/04/02 05:33:05;;;;;;;;;;;6.40;99.90;;;;;;5033115;28;19917;-60
2024/04/02 05:35:31;;;;;;;;;;;6.50;99.90;;;;;;5032137;28;19964;-60
2024/04/02 05:37:57;;;;;;;;;;;6.50;99.90;;;;;;5037767;28;19928;-61
2024/04/02 05:40:23;;;;;;;;;;;6.60;99.90;;;;;;5041855;28;20054;-60
2024/04/02 05:42:49;;;;;;;;;;;6.70;99.90;;;;;;5040271;28;19983;-59
2024/04/02 05:45:15;;;;;;;;;;;6.90;99.90;;;;;;5040151;28;20329;-60
2024/04/02 05:47:41;;;;;;;;;;;7.00;99.90;;;;;;5031368;28;19960;-61
2024/04/02 05:50:06;;;;;;;;;;;7.20;99.90;;;;;;5039592;28;19941;-62
2024/04/02 05:52:32;;;;;;;;;;;7.30;99.90;;;;;;5039884;28;20019;-58
2024/04/02 05:54:57;;;;;;;;;;;7.40;99.90;;;;;;5031514;28;20059;-59
2024/04/02 05:57:23;;;;;;;;;;;7.40;99.90;;;;;;5039387;28;19944;-58
2024/04/02 05:59:51;;;;;;;;;;;7.50;99.90;;;;;;5039623;28;19927;-60
2024/04/02 06:02:17;;;;;;;;;;;7.60;99.90;;;;;;5031381;28;20010;-60
2024/04/02 06:04:43;;;;;;;;;;;7.60;99.90;;;;;;5043240;28;19948;-60
2024/04/02 06:07:08;;;;;;;;;;;7.70;99.90;;;;;;5035981;28;19923;-61
2024/04/02 06:09:34;;;;;;;;;;;7.70;99.90;;;;;;5039038;28;19936;-61
2024/04/02 06:11:59;;;;;;;;;;;7.80;99.90;;;;;;5037217;28;19978;-61
2024/04/02 06:14:25;;;;;;;;;;;7.80;99.90;;;;;;5033333;28;19975;-61
2024/04/02 06:16:50;;;;;;;;;;;7.90;99.90;;;;;;5039663;28;19944;-59
2024/04/02 06:19:15;;;;;;;;;;;8.00;99.90;;;;;;5038537;28;20381;-60
2024/04/02 06:21:42;;;;;;;;;;;8.10;99.90;;;;;;5047711;28;19932;-61
2024/04/02 06:24:07;;;;;;;;;;;8.20;99.90;;;;;;5031341;28;19987;-60
2024/04/02 06:26:32;;;;;;;;;;;8.30;99.90;;;;;;5032849;28;20273;-58
2024/04/02 06:28:58;;;;;;;;;;;8.40;99.90;;;;;;5044635;28;19927;-58
2024/04/02 06:31:23;;;;;;;;;;;8.40;99.90;;;;;;5030920;28;19920;-58
2024/04/02 06:33:49;;;;;;;;;;;8.50;99.90;;;;;;5039321;28;20370;-59
2024/04/02 06:36:14;;;;;;;;;;;8.60;99.90;;;;;;5038573;28;19913;-60
2024/04/02 06:38:40;;;;;;;;;;;8.60;99.90;;;;;;5030203;28;19917;-61
2024/04/02 06:41:05;;;;;;;;;;;8.70;99.90;;;;;;5030380;28;20270;-60
2024/04/02 06:43:31;;;;;;;;;;;8.70;99.90;;;;;;5012963;28;19910;-59
2024/04/02 06:45:58;;;;;;;;;;;8.80;99.90;;;;;;5044326;28;19921;-58
2024/04/02 06:48:23;;;;;;;;;;;8.90;99.90;;;;;;5032058;28;19913;-61
2024/04/02 06:50:58;;;;;;;;;;;8.90;99.90;;;;;;5038455;28;19920;-61
2024/04/02 06:53:24;;;;;;;;;;;9.00;99.90;;;;;;5038674;28;19913;-60
2024/04/02 06:55:50;;;;;;;;;;;9.00;99.90;;;;;;5030693;28;20026;-60
2024/04/02 06:58:15;;;;;;;;;;;9.00;99.90;;;;;;5030563;28;20044;-61
2024/04/02 07:00:43;;;;;;;;;;;9.20;99.90;;;;;;5029694;28;20058;-60
2024/04/02 07:03:08;;;;;;;;;;;9.30;99.90;;;;;;5030570;28;19917;-60
2024/04/02 07:05:34;;;;;;;;;;;9.30;99.90;;;;;;5040668;28;19935;-61
2024/04/02 07:07:59;;;;;;;;;;;9.30;99.90;;;;;;5041451;28;19968;-60
2024/04/02 07:10:25;;;;;;;;;;;9.40;99.90;;;;;;5032274;28;19924;-61
2024/04/02 07:12:50;;;;;;;;;;;9.40;99.90;;;;;;5030015;28;20316;-60
2024/04/02 07:15:16;;;;;;;;;;;9.50;99.90;;;;;;5030133;28;19913;-61
2024/04/02 07:17:41;;;;;;;;;;;9.70;99.90;;;;;;5029221;28;19925;-59
2024/04/02 07:20:07;;;;;;;;;;;9.70;99.90;;;;;;5029483;28;19927;-61
2024/04/02 07:22:32;;;;;;;;;;;9.70;99.90;;;;;;5030414;28;19913;-60
2024/04/02 07:24:57;;;;;;;;;;;9.80;99.90;;;;;;5030006;28;19935;-59
2024/04/02 07:27:23;;;;;;;;;;;9.90;99.90;;;;;;5038581;28;19916;-61
2024/04/02 07:29:48;;;;;;;;;;;9.80;99.90;;;;;;5041021;28;19916;-58
2024/04/02 07:32:14;;;;;;;;;;;10.00;99.90;;;;;;5033895;28;20482;-60
2024/04/02 07:34:39;;;;;;;;;;;10.20;99.90;;;;;;5032091;28;19916;-61
2024/04/02 07:37:05;;;;;;;;;;;10.50;99.90;;;;;;5027983;28;19974;-61
2024/04/02 07:39:30;;;;;;;;;;;10.60;99.90;;;;;;5036086;28;19916;-59
2024/04/02 07:41:56;;;;;;;;;;;10.90;99.90;;;;;;5044493;28;20301;-59
2024/04/02 07:44:21;;;;;;;;;;;11.00;99.90;;;;;;5046026;28;20033;-61
2024/04/02 07:46:48;;;;;;;;;;;11.10;99.90;;;;;;5038341;28;19967;-63
2024/04/02 07:49:14;;;;;;;;;;;11.30;99.90;;;;;;5044436;28;19915;-61
2024/04/02 07:51:39;;;;;;;;;;;11.60;99.90;;;;;;5028632;28;20289;-61
2024/04/02 07:54:05;;;;;;;;;;;11.80;99.90;;;;;;5028787;28;19971;-59
2024/04/02 07:56:30;;;;;;;;;;;12.10;99.90;;;;;;5028521;28;19913;-60
2024/04/02 07:58:56;;;;;;;;;;;12.30;99.90;;;;;;5041467;28;19965;-60
2024/04/02 08:01:21;;;;;;;;;;;12.50;99.90;;;;;;5039817;28;19921;-60
2024/04/02 08:03:47;;;;;;;;;;;12.60;99.90;;;;;;5028601;28;19917;-59
2024/04/02 08:06:12;;;;;;;;;;;12.90;99.90;;;;;;5037403;28;19920;-59
2024/04/02 08:08:38;;;;;;;;;;;13.40;99.90;;;;;;5037734;28;19917;-61
2024/04/02 08:11:03;;;;;;;;;;;13.50;99.90;;;;;;5028929;28;20408;-61
2024/04/02 08:13:29;;;;;;;;;;;13.60;99.90;;;;;;5037120;28;19913;-61
2024/04/02 08:15:54;;;;;;;;;;;14.00;99.90;;;;;;5037537;28;19968;-60
2024/04/02 08:18:20;;;;;;;;;;;14.30;99.90;;;;;;5027697;28;20315;-60
2024/04/02 08:20:45;;;;;;;;;;;14.50;99.90;;;;;;5036888;28;20000;-60
2024/04/02 08:23:11;;;;;;;;;;;14.30;99.90;;;;;;5029264;28;19963;-60
2024/04/02 08:25:36;;;;;;;;;;;14.10;99.90;;;;;;5031486;28;19917;-60
2024/04/02 08:28:01;;;;;;;;;;;13.70;99.90;;;;;;5034711;28;19925;-60
2024/04/02 08:30:27;;;;;;;;;;;13.10;99.90;;;;;;5036947;28;19913;-61
2024/04/02 08:32:52;;;;;;;;;;;12.70;99.90;;;;;;5029316;28;19944;-59
2024/04/02 08:35:18;;;;;;;;;;;12.40;99.90;;;;;;5037384;28;20312;-59
2024/04/02 08:37:43;;;;;;;;;;;12.10;99.90;;;;;;5028558;28;19913;-61
2024/04/02 08:40:09;;;;;;;;;;;11.80;99.90;;;;;;5043796;28;19917;-58
2024/04/02 08:42:37;;;;;;;;;;;11.60;99.90;;;;;;5030143;28;20381;-59
2024/04/02 08:45:03;;;;;;;;;;;11.30;99.90;;;;;;5028888;28;19960;-61
2024/04/02 08:47:30;;;;;;;;;;;11.20;99.90;;;;;;5028530;28;19974;-61
2024/04/02 08:49:56;;;;;;;;;;;11.20;99.90;;;;;;5028551;28;19913;-61
2024/04/02 08:52:21;;;;;;;;;;;11.40;99.90;;;;;;5011023;28;20322;-59
2024/04/02 08:54:47;;;;;;;;;;;12.30;99.90;;;;;;5033037;28;19920;-62
2024/04/02 08:57:12;;;;;;;;;;;12.60;99.90;;;;;;5047795;28;20016;-61
2024/04/02 08:59:39;;;;;;;;;;;13.00;99.90;;;;;;5040063;28;19939;-60
2024/04/02 09:02:07;;;;;;;;;;;13.10;99.90;;;;;;5037087;28;19967;-60
2024/04/02 09:04:33;;;;;;;;;;;12.80;99.90;;;;;;5029546;28;19924;-59
2024/04/02 09:06:59;;;;;;;;;;;12.60;99.90;;;;;;5030618;28;19925;-61
2024/04/02 09:09:25;;;;;;;;;;;12.20;99.90;;;;;;5026462;28;19991;-59
2024/04/02 09:11:51;;;;;;;;;;;11.90;99.90;;;;;;5027577;28;20265;-60
2024/04/02 09:14:17;;;;;;;;;;;11.70;99.90;;;;;;5026794;28;19913;-54
2024/04/02 09:16:43;;;;;;;;;;;11.50;99.90;;;;;;5027341;28;19936;-58
2024/04/02 09:19:08;;;;;;;;;;;11.40;99.90;;;;;;5026288;28;19935;-55
2024/04/02 09:21:34;;;;;;;;;;;11.30;99.90;;;;;;5026761;28;20385;-54
2024/04/02 09:23:59;;;;;;;;;;;11.20;99.90;;;;;;5027542;28;19921;-57
2024/04/02 09:26:25;;;;;;;;;;;11.30;99.90;;;;;;5028334;28;20420;-54
2024/04/02 09:28:50;;;;;;;;;;;11.40;99.90;;;;;;5027695;28;19921;-56
2024/04/02 09:31:16;;;;;;;;;;;11.50;99.90;;;;;;5027127;28;20003;-56
2024/04/02 09:33:42;;;;;;;;;;;11.40;99.90;;;;;;5027229;28;19913;-54
2024/04/02 09:36:12;;;;;;;;;;;11.40;99.90;;;;;;5027203;28;19917;-53
2024/04/02 09:38:40;;;;;;;;;;;11.50;99.90;;;;;;5026715;28;19917;-55
2024/04/02 09:41:06;;;;;;;;;;;11.40;99.90;;;;;;5026560;28;19920;-58
2024/04/02 09:43:32;;;;;;;;;;;11.40;99.90;;;;;;5026745;28;19920;-57
2024/04/02 09:46:02;;;;;;;;;;;11.50;99.90;;;;;;5038561;28;19913;-58
2024/04/02 09:48:31;;;;;;;;;;;11.80;99.90;;;;;;5032439;28;20265;-57
2024/04/02 09:50:58;;;;;;;;;;;12.10;99.90;;;;;;5038100;28;19924;-57
2024/04/02 09:53:27;;;;;;;;;;;12.30;99.90;;;;;;5048605;28;19916;-56
2024/04/02 09:55:54;;;;;;;;;;;12.60;99.90;;;;;;5038781;28;19958;-57
2024/04/02 09:58:19;;;;;;;;;;;13.20;99.90;;;;;;5039546;28;20411;-54
2024/04/02 10:00:47;;;;;;;;;;;13.60;99.90;;;;;;5042618;28;19916;-57
2024/04/02 10:03:13;;;;;;;;;;;13.70;99.90;;;;;;5036298;28;20334;-54
2024/04/02 10:05:39;;;;;;;;;;;13.60;99.90;;;;;;5039613;28;20258;-57
2024/04/02 10:08:07;;;;;;;;;;;13.40;99.90;;;;;;5031289;28;19960;-55
2024/04/02 10:10:37;;;;;;;;;;;13.00;99.90;;;;;;5032515;28;19951;-55
2024/04/02 10:13:06;;;;;;;;;;;12.60;99.90;;;;;;5050272;28;19913;-56
2024/04/02 10:15:32;;;;;;;;;;;12.60;99.90;;;;;;5033046;28;19913;-54
2024/04/02 10:18:00;;;;;;;;;;;12.50;99.90;;;;;;5031291;28;20020;-56
2024/04/02 10:20:27;;;;;;;;;;;12.30;99.90;;;;;;5039492;28;19917;-51
2024/04/02 10:22:53;;;;;;;;;;;12.10;99.90;;;;;;5038152;28;19913;-53
2024/04/02 10:25:18;;;;;;;;;;;12.10;99.90;;;;;;5047209;28;19955;-57
2024/04/02 10:27:46;;;;;;;;;;;12.10;99.90;;;;;;5021241;28;20407;-52
2024/04/02 10:30:16;;;;;;;;;;;12.00;99.90;;;;;;5020922;28;19917;-52
2024/04/02 10:32:44;;;;;;;;;;;11.90;99.90;;;;;;5042252;28;20055;-56
2024/04/02 10:35:20;;;;;;;;;;;12.20;99.90;;;;;;5035442;28;20004;-54
2024/04/02 10:37:46;;;;;;;;;;;12.30;99.90;;;;;;5038974;28;19920;-56
2024/04/02 10:40:12;;;;;;;;;;;12.30;99.90;;;;;;5037060;28;19916;-57
2024/04/02 10:42:38;;;;;;;;;;;12.40;99.90;;;;;;5034070;28;19943;-55
2024/04/02 10:45:05;;;;;;;;;;;12.60;99.90;;;;;;5050785;28;19963;-54
2024/04/02 10:47:30;;;;;;;;;;;12.80;99.90;;;;;;5033977;28;20288;-55
2024/04/02 10:49:56;;;;;;;;;;;12.90;99.90;;;;;;5029759;28;19921;-51
2024/04/02 10:52:21;;;;;;;;;;;12.90;99.90;;;;;;5030353;28;19920;-54
2024/04/02 10:54:47;;;;;;;;;;;13.10;99.90;;;;;;5038529;28;19918;-60
2024/04/02 10:57:12;;;;;;;;;;;13.20;99.90;;;;;;5037223;28;19928;-60
2024/04/02 10:59:42;;;;;;;;;;;13.30;99.90;;;;;;5042732;28;20365;-57
2024/04/02 11:02:14;;;;;;;;;;;13.40;99.90;;;;;;5040690;28;19912;-60
2024/04/02 11:04:40;;;;;;;;;;;13.50;99.90;;;;;;5044447;28;19917;-58
2024/04/02 11:07:09;;;;;;;;;;;13.40;99.90;;;;;;5039784;28;19924;-57
2024/04/02 11:09:34;;;;;;;;;;;13.20;99.90;;;;;;5039745;28;20597;-57
2024/04/02 11:12:00;;;;;;;;;;;13.20;99.90;;;;;;5038778;28;19918;-59
2024/04/02 11:14:27;;;;;;;;;;;13.20;99.90;;;;;;5038090;28;20365;-59
2024/04/02 11:16:52;;;;;;;;;;;13.10;99.90;;;;;;5029845;28;19917;-58
2024/04/02 11:19:18;;;;;;;;;;;12.80;99.90;;;;;;5029486;28;19913;-59
2024/04/02 11:21:43;;;;;;;;;;;12.70;99.90;;;;;;5038054;28;19999;-58
2024/04/02 11:26:59;;;;;;;;;;;12.80;99.90;;;;;;5030247;28;19916;-60
2024/04/02 11:29:25;;;;;;;;;;;13.20;99.90;;;;;;5038011;28;19921;-59
2024/04/02 11:31:50;;;;;;;;;;;13.40;99.90;;;;;;5029906;28;19921;-58
2024/04/02 11:34:16;;;;;;;;;;;13.60;99.90;;;;;;5029581;28;19913;-59
2024/04/02 11:36:41;;;;;;;;;;;13.50;99.90;;;;;;5037644;28;19960;-60
2024/04/02 11:39:07;;;;;;;;;;;13.80;99.90;;;;;;5029120;28;19917;-61
2024/04/02 11:41:34;;;;;;;;;;;13.80;99.90;;;;;;5029429;28;19998;-60
2024/04/02 11:44:00;;;;;;;;;;;13.80;99.90;;;;;;5029497;28;19957;-59
2024/04/02 11:46:25;;;;;;;;;;;14.00;99.90;;;;;;5037721;28;19928;-57
2024/04/02 11:48:51;;;;;;;;;;;14.00;99.90;;;;;;5029016;28;19921;-62
2024/04/02 11:51:16;;;;;;;;;;;13.70;99.90;;;;;;5029477;28;19917;-60
2024/04/02 11:53:41;;;;;;;;;;;13.60;99.90;;;;;;5029670;28;20003;-62
2024/04/02 11:56:07;;;;;;;;;;;13.40;99.90;;;;;;5027806;28;20008;-62
2024/04/02 12:01:16;;;;;;;;;;;12.50;99.90;;;;;;5029476;28;20024;-62
2024/04/02 12:03:42;;;;;;;;;;;12.40;99.90;;;;;;5032043;28;20431;-61
2024/04/02 12:06:07;;;;;;;;;;;12.90;99.90;;;;;;5034540;28;19992;-60
2024/04/02 12:08:33;;;;;;;;;;;13.60;99.90;;;;;;5010527;28;19921;-61
2024/04/02 12:10:58;;;;;;;;;;;14.10;99.90;;;;;;5028881;28;20377;-55
2024/04/02 12:13:23;;;;;;;;;;;14.10;99.90;;;;;;5037243;28;19936;-56
2024/04/02 12:15:49;;;;;;;;;;;14.00;99.90;;;;;;5033022;28;19987;-56
2024/04/02 12:18:15;;;;;;;;;;;14.20;99.90;;;;;;5039738;28;20448;-61
2024/04/02 12:20:40;;;;;;;;;;;14.10;99.90;;;;;;5029413;28;20396;-57
2024/04/02 12:23:06;;;;;;;;;;;13.80;99.90;;;;;;5035054;28;19913;-59
2024/04/02 12:25:31;;;;;;;;;;;13.60;99.90;;;;;;5031032;28;20373;-59
2024/04/02 12:27:57;;;;;;;;;;;13.50;99.90;;;;;;5029489;28;20277;-57
2024/04/02 12:30:22;;;;;;;;;;;13.60;99.90;;;;;;5028462;28;20377;-57
2024/04/02 12:32:48;;;;;;;;;;;13.60;99.90;;;;;;5032605;28;19916;-59
2024/04/02 12:35:15;;;;;;;;;;;13.50;99.90;;;;;;5040852;28;19917;-57
2024/04/02 12:37:41;;;;;;;;;;;13.20;99.90;;;;;;5033791;28;20364;-58
2024/04/02 12:40:07;;;;;;;;;;;13.10;99.90;;;;;;5032294;28;20353;-57
2024/04/02 12:42:32;;;;;;;;;;;12.80;99.90;;;;;;5040903;28;19947;-55
2024/04/02 12:44:58;;;;;;;;;;;12.80;99.90;;;;;;5046232;28;20007;-60
2024/04/02 12:47:24;;;;;;;;;;;12.90;99.90;;;;;;5035551;28;19921;-60
2024/04/02 12:49:49;;;;;;;;;;;13.10;99.90;;;;;;5044755;28;19913;-61
2024/04/02 12:52:16;;;;;;;;;;;13.00;99.90;;;;;;5037530;28;20307;-61
2024/04/02 12:54:41;;;;;;;;;;;12.90;99.90;;;;;;5035727;28;20008;-61
2024/04/02 12:57:07;;;;;;;;;;;12.70;99.90;;;;;;5037994;28;20059;-60
2024/04/02 12:59:32;;;;;;;;;;;12.70;99.90;;;;;;5040228;28;20247;-60
2024/04/02 13:01:58;;;;;;;;;;;12.70;99.90;;;;;;5045801;28;20437;-59
2024/04/02 13:04:24;;;;;;;;;;;12.90;99.90;;;;;;5035741;28;19909;-59
2024/04/02 13:06:49;;;;;;;;;;;13.40;99.90;;;;;;5033249;28;19909;-56
2024/04/02 13:09:15;;;;;;;;;;;13.80;99.90;;;;;;5047564;28;19913;-55
2024/04/02 13:11:41;;;;;;;;;;;14.00;99.90;;;;;;5041452;28;19995;-56
2024/04/02 13:14:06;;;;;;;;;;;14.30;99.90;;;;;;5032334;28;20346;-54
2024/04/02 13:16:34;;;;;;;;;;;14.50;99.90;;;;;;5041896;28;19924;-56
2024/04/02 13:19:00;;;;;;;;;;;14.90;99.90;;;;;;5043686;28;19923;-56
2024/04/02 13:21:26;;;;;;;;;;;15.00;99.90;;;;;;5035488;28;20011;-56
2024/04/02 13:23:51;;;;;;;;;;;14.80;99.90;;;;;;5048232;28;20048;-54
2024/04/02 13:26:17;;;;;;;;;;;14.70;99.90;;;;;;5013993;28;20018;-59
2024/04/02 13:28:42;;;;;;;;;;;14.20;99.90;;;;;;5034549;28;19955;-57
2024/04/02 13:31:08;;;;;;;;;;;14.00;99.90;;;;;;5035305;28;19943;-57
2024/04/02 13:33:35;;;;;;;;;;;14.20;99.90;;;;;;5030368;28;19911;-56
2024/04/02 13:36:07;;;;;;;;;;;14.40;99.90;;;;;;5030185;28;19967;-54
2024/04/02 13:38:32;;;;;;;;;;;14.70;99.90;;;;;;5039153;28;19909;-54
2024/04/02 13:40:58;;;;;;;;;;;15.00;99.90;;;;;;5043626;28;20385;-57
2024/04/02 13:43:23;;;;;;;;;;;15.40;99.90;;;;;;5034066;28;19917;-56
2024/04/02 13:46:00;;;;;;;;;;;15.40;99.90;;;;;;5039067;28;19972;-57
2024/04/02 13:48:32;;;;;;;;;;;15.20;99.90;;;;;;5030595;28;19917;-54
2024/04/02 13:51:08;;;;;;;;;;;15.10;99.90;;;;;;5031294;28;20203;-56
2024/04/02 13:53:34;;;;;;;;;;;15.10;99.90;;;;;;5039746;28;19913;-58
2024/04/02 13:56:00;;;;;;;;;;;14.90;99.90;;;;;;5031492;28;19909;-57
2024/04/02 13:58:26;;;;;;;;;;;14.80;99.90;;;;;;5031574;28;20020;-54
2024/04/02 14:00:52;;;;;;;;;;;14.10;99.90;;;;;;5038798;28;20375;-57
2024/04/02 14:03:17;;;;;;;;;;;13.80;99.90;;;;;;5039107;28;20273;-57
2024/04/02 14:05:43;;;;;;;;;;;13.80;99.90;;;;;;5031983;28;19948;-57
2024/04/02 14:08:09;;;;;;;;;;;13.70;99.90;;;;;;5039334;28;19913;-55
2024/04/02 14:10:35;;;;;;;;;;;13.80;99.90;;;;;;5040402;28;19919;-53
2024/04/02 14:13:01;;;;;;;;;;;13.80;99.90;;;;;;5043566;28;19923;-57
2024/04/02 14:15:34;;;;;;;;;;;13.80;99.90;;;;;;5041987;28;20392;-55
2024/04/02 14:18:00;;;;;;;;;;;13.90;99.90;;;;;;5031095;28;19970;-58
2024/04/02 14:20:25;;;;;;;;;;;14.20;99.90;;;;;;5030542;28;19921;-55